createdAt,value
2023-01-13T00:04:06.046Z,100.00
2023-01-13T00:14:10.474Z,100.00
2023-01-13T00:24:13.434Z,100.00
2023-01-13T00:34:17.775Z,100.00
2023-01-13T00:44:20.856Z,100.00
2023-01-13T00:54:25.246Z,100.00
2023-01-13T01:04:28.312Z,100.00
2023-01-13T01:14:32.670Z,100.00
2023-01-13T01:24:35.662Z,100.00
2023-01-13T01:34:40.100Z,99.96
2023-01-13T01:45:01.242Z,98.19
2023-01-13T01:55:10.659Z,96.20
2023-01-13T02:05:14.239Z,94.34
2023-01-13T02:15:22.844Z,93.55
2023-01-13T02:25:47.107Z,94.44
2023-01-13T02:35:57.381Z,95.73
2023-01-13T02:46:06.228Z,96.71
2023-01-13T02:56:12.165Z,96.25
2023-01-13T03:06:37.641Z,94.92
2023-01-13T03:16:53.076Z,93.45
2023-01-13T03:27:02.749Z,91.08
2023-01-13T03:37:08.942Z,88.67
2023-01-13T03:47:15.940Z,84.30
2023-01-13T03:57:21.706Z,84.62
2023-01-13T04:07:29.433Z,87.29
2023-01-13T04:17:33.524Z,90.87
2023-01-13T04:27:36.470Z,94.84
2023-01-13T04:37:40.820Z,96.01
2023-01-13T04:47:43.765Z,96.41
2023-01-13T04:57:48.234Z,96.91
2023-01-13T05:07:51.215Z,97.08
2023-01-13T05:17:55.521Z,97.81
2023-01-13T05:27:59.920Z,97.25
2023-01-13T05:38:04.249Z,96.23
2023-01-13T05:48:07.293Z,95.49
2023-01-13T05:58:13.085Z,95.71
2023-01-13T06:08:16.356Z,94.80
2023-01-13T06:18:20.783Z,95.06
2023-01-13T06:28:23.794Z,95.08
2023-01-13T06:38:32.034Z,93.73
2023-01-13T06:48:35.966Z,92.69
2023-01-13T06:58:40.384Z,91.95
2023-01-13T07:08:43.332Z,91.27
2023-01-13T07:18:47.806Z,90.20
2023-01-13T07:28:50.872Z,89.09
2023-01-13T07:38:58.475Z,88.40
2023-01-13T07:49:01.569Z,88.36
2023-01-13T07:59:05.953Z,89.35
2023-01-13T08:09:09.798Z,89.84
2023-01-13T08:19:14.250Z,91.10
2023-01-13T08:29:17.475Z,91.11
2023-01-13T08:39:21.910Z,91.20
2023-01-13T08:49:25.980Z,90.23
2023-01-13T08:59:30.457Z,88.28
2023-01-13T09:09:33.544Z,86.91
2023-01-13T09:19:38.089Z,85.11
2023-01-13T09:29:41.131Z,84.08
2023-01-13T09:39:46.087Z,83.14
2023-01-13T09:49:48.985Z,83.48
2023-01-13T09:59:53.317Z,83.12
2023-01-13T10:09:59.523Z,84.16
2023-01-13T10:20:16.759Z,82.30
2023-01-13T10:30:23.451Z,85.77
2023-01-13T10:40:27.852Z,90.28
2023-01-13T10:50:31.690Z,96.15
2023-01-13T11:00:36.881Z,96.47
2023-01-13T11:10:47.112Z,94.63
2023-01-13T11:20:52.976Z,91.45
2023-01-13T11:31:01.621Z,89.77
2023-01-13T11:41:15.334Z,88.06
2023-01-13T11:51:26.531Z,88.17
2023-01-13T12:01:44.853Z,86.74
2023-01-13T12:12:17.786Z,84.72
2023-01-13T12:22:27.628Z,82.19
2023-01-13T12:32:37.195Z,82.91
2023-01-13T12:43:08.727Z,81.03
2023-01-13T12:53:36.707Z,81.26
2023-01-13T13:04:04.103Z,81.50
2023-01-13T13:14:08.557Z,81.35
2023-01-13T13:24:13.171Z,81.49
2023-01-13T13:34:25.112Z,80.47
2023-01-13T13:44:59.216Z,79.49
2023-01-13T13:55:17.340Z,80.08
2023-01-13T14:05:23.810Z,81.46
2023-01-13T14:15:33.360Z,82.02
2023-01-13T14:25:40.433Z,83.37
2023-01-13T14:36:18.222Z,82.14
2023-01-13T14:46:25.386Z,82.76
2023-01-13T14:56:43.307Z,82.88
2023-01-13T15:06:52.788Z,82.90
2023-01-13T15:16:56.993Z,83.30
2023-01-13T15:27:01.750Z,83.62
2023-01-13T15:37:04.749Z,84.32
2023-01-13T15:47:11.013Z,83.92
2023-01-13T15:57:22.606Z,82.85
2023-01-13T16:07:27.363Z,82.46
2023-01-13T16:17:34.279Z,82.10
2023-01-13T16:27:38.669Z,79.90
2023-01-13T16:37:41.740Z,79.82
2023-01-13T16:47:46.135Z,80.57
2023-01-13T16:57:49.162Z,80.47
2023-01-13T17:07:53.695Z,80.28
2023-01-13T17:17:57.537Z,81.14
2023-01-13T17:28:01.931Z,83.82
2023-01-13T17:38:04.932Z,83.08
2023-01-13T17:48:09.406Z,82.57
2023-01-13T17:58:12.349Z,82.85
2023-01-13T18:08:16.744Z,83.74
2023-01-13T18:18:19.704Z,83.38
2023-01-13T18:28:24.445Z,82.23
2023-01-13T18:38:27.461Z,82.17
2023-01-13T18:48:32.735Z,82.71
2023-01-13T18:58:35.775Z,85.48
2023-01-13T19:08:40.250Z,93.55
2023-01-13T19:18:43.660Z,93.07
2023-01-13T19:28:48.621Z,93.78
2023-01-13T19:38:53.890Z,93.18
2023-01-13T19:48:58.243Z,93.53
2023-01-13T19:59:01.229Z,93.53
2023-01-13T20:09:05.620Z,92.79
2023-01-13T20:19:08.584Z,91.95
2023-01-13T20:29:13.128Z,91.33
2023-01-13T20:39:19.323Z,91.67
2023-01-13T20:49:23.702Z,91.20
2023-01-13T20:59:26.761Z,90.13
2023-01-13T21:09:31.132Z,89.82
2023-01-13T21:19:34.330Z,89.93
2023-01-13T21:29:38.676Z,89.56
2023-01-13T21:39:41.718Z,90.52
2023-01-13T21:49:46.181Z,90.93
2023-01-13T21:59:49.433Z,90.74
2023-01-13T22:09:53.842Z,91.47
2023-01-13T22:19:57.427Z,92.63
2023-01-13T22:30:01.819Z,92.25
2023-01-13T22:40:05.671Z,92.02
2023-01-13T22:50:12.656Z,92.22
2023-01-13T23:00:19.485Z,92.11
2023-01-13T23:10:24.404Z,91.49
2023-01-13T23:20:27.392Z,91.93
2023-01-13T23:30:31.879Z,91.60
2023-01-13T23:40:35.417Z,91.81
2023-01-13T23:50:39.799Z,92.58
